Time;durP1;ratioP1;P1;durP2;ratioP2;P2;SDS_P1;SDS_P2;PMS_P1;PMS_P2;Temp;Humidity;BMP_temperature;BMP_pressure;BME280_temperature;BME280_humidity;BME280_pressure;Samples;Min_cycle;Max_cycle;Signal;HPM_P1;HPM_P2
2024/01/10 00:00:39;;;;;;;19.10;10.65;;;-2.50;99.90;;;;;;5069789;28;20123;-68
2024/01/10 00:03:05;;;;;;;14.60;9.35;;;-2.50;99.90;;;;;;5088194;28;20082;-67
2024/01/10 00:05:30;;;;;;;17.42;10.65;;;-2.60;99.90;;;;;;5087892;28;20071;-67
2024/01/10 00:07:56;;;;;;;18.08;10.05;;;-2.60;99.90;;;;;;5069513;28;20101;-68
2024/01/10 00:10:22;;;;;;;17.85;9.85;;;-2.60;99.90;;;;;;5087825;28;20038;-66
2024/01/10 00:12:48;;;;;;;17.88;10.35;;;-2.60;99.90;;;;;;5087818;28;20051;-67
2024/01/10 00:15:13;;;;;;;20.73;11.23;;;-2.60;99.90;;;;;;5068962;28;20079;-67
2024/01/10 00:17:40;;;;;;;17.65;10.18;;;-2.60;99.90;;;;;;5069714;28;20562;-68
2024/01/10 00:20:07;;;;;;;16.40;10.27;;;-2.60;99.90;;;;;;5085563;28;20125;-67
2024/01/10 00:22:33;;;;;;;15.55;10.32;;;-2.60;99.90;;;;;;5087508;28;20051;-67
2024/01/10 00:24:59;;;;;;;18.83;10.77;;;-2.70;99.90;;;;;;5087444;28;20060;-68
2024/01/10 00:27:24;;;;;;;20.02;10.30;;;-2.70;99.90;;;;;;5087400;28;20040;-67
2024/01/10 00:29:55;;;;;;;18.42;10.75;;;-2.70;99.90;;;;;;5088039;28;20218;-67
2024/01/10 00:32:21;;;;;;;15.57;9.30;;;-2.70;99.90;;;;;;5087638;28;20040;-67
2024/01/10 00:34:46;;;;;;;15.02;9.52;;;-2.70;99.90;;;;;;5087522;28;20039;-68
2024/01/10 00:37:12;;;;;;;17.50;9.65;;;-2.70;99.90;;;;;;5087557;28;20047;-68
2024/01/10 00:39:38;;;;;;;14.07;9.73;;;-2.70;99.90;;;;;;5087481;28;20040;-68
2024/01/10 00:42:03;;;;;;;18.27;10.48;;;-2.70;99.90;;;;;;5069530;28;20435;-68
2024/01/10 00:44:29;;;;;;;14.68;9.68;;;-2.70;99.90;;;;;;5087594;28;20044;-68
2024/01/10 00:46:55;;;;;;;18.42;10.90;;;-2.70;99.90;;;;;;5087455;28;20036;-68
2024/01/10 00:49:20;;;;;;;12.55;8.77;;;-2.70;99.90;;;;;;5069205;28;20044;-67
2024/01/10 00:51:46;;;;;;;14.70;9.02;;;-2.70;99.90;;;;;;5069428;28;20052;-68
2024/01/10 00:54:12;;;;;;;14.07;8.65;;;-2.70;99.90;;;;;;5088387;28;20036;-67
2024/01/10 00:56:37;;;;;;;17.30;9.70;;;-2.70;99.90;;;;;;5087304;28;20143;-68
2024/01/10 00:59:03;;;;;;;16.88;9.88;;;-2.70;99.90;;;;;;5087204;28;20454;-68
2024/01/10 01:01:29;;;;;;;14.00;8.98;;;-2.70;99.90;;;;;;5087540;28;20143;-67
2024/01/10 01:03:55;;;;;;;16.02;10.38;;;-2.70;99.90;;;;;;5068772;28;20048;-68
2024/01/10 01:06:21;;;;;;;14.85;9.32;;;-2.80;99.90;;;;;;5068774;28;20120;-67
2024/01/10 01:08:46;;;;;;;12.73;8.65;;;-2.70;99.90;;;;;;5068888;28;20147;-67
2024/01/10 01:11:14;;;;;;;14.25;9.25;;;-2.80;99.90;;;;;;5087345;28;20412;-67
2024/01/10 01:13:40;;;;;;;15.60;9.32;;;-2.80;99.90;;;;;;5087017;28;20051;-67
2024/01/10 01:16:06;;;;;;;13.57;8.93;;;-2.80;99.90;;;;;;5087532;28;20040;-68
2024/01/10 01:18:31;;;;;;;14.18;8.85;;;-2.80;99.90;;;;;;5086702;28;20040;-68
2024/01/10 01:20:58;;;;;;;13.25;7.95;;;-2.80;99.90;;;;;;5068736;28;20052;-67
2024/01/10 01:23:24;;;;;;;12.48;9.10;;;-2.80;99.90;;;;;;5068691;28;20056;-68
2024/01/10 01:25:50;;;;;;;15.73;8.90;;;-2.90;99.90;;;;;;5069425;28;20047;-68
2024/01/10 01:28:16;;;;;;;16.38;9.10;;;-2.90;99.90;;;;;;5090831;28;20412;-68
2024/01/10 01:30:42;;;;;;;16.02;8.55;;;-2.80;99.90;;;;;;5090952;28;20032;-67
2024/01/10 01:33:07;;;;;;;15.77;9.48;;;-2.90;99.90;;;;;;5090899;28;20110;-68
2024/01/10 01:35:33;;;;;;;14.82;8.77;;;-3.00;99.90;;;;;;5072336;28;20477;-68
2024/01/10 01:37:59;;;;;;;13.73;9.35;;;-3.00;99.90;;;;;;5090758;28;20056;-67
2024/01/10 01:40:25;;;;;;;12.57;9.05;;;-3.00;99.90;;;;;;5072471;28;20051;-67
2024/01/10 01:42:50;;;;;;;18.10;10.10;;;-3.00;99.90;;;;;;5072794;28;20140;-67
2024/01/10 01:45:16;;;;;;;16.55;8.75;;;-3.00;99.90;;;;;;5073151;28;20051;-67
2024/01/10 01:47:42;;;;;;;14.65;9.35;;;-3.00;99.90;;;;;;5090526;28;20147;-67
2024/01/10 01:50:08;;;;;;;16.42;9.57;;;-3.00;99.90;;;;;;5072657;28;20349;-67
2024/01/10 01:52:34;;;;;;;14.30;8.05;;;-3.00;99.90;;;;;;5090672;28;20040;-68
2024/01/10 01:55:01;;;;;;;17.77;9.27;;;-2.90;99.90;;;;;;5090890;28;20200;-68
2024/01/10 01:57:27;;;;;;;15.57;9.48;;;-2.90;99.90;;;;;;5071914;28;20056;-68
2024/01/10 01:59:52;;;;;;;15.30;10.10;;;-3.00;99.90;;;;;;5071922;28;20571;-67
2024/01/10 02:02:20;;;;;;;15.32;9.18;;;-3.00;99.90;;;;;;5090389;28;20075;-67
2024/01/10 02:04:46;;;;;;;16.13;10.07;;;-3.00;99.90;;;;;;5072052;28;20044;-67
2024/01/10 02:07:12;;;;;;;17.13;9.63;;;-2.90;99.90;;;;;;5090024;28;20080;-67
2024/01/10 02:09:38;;;;;;;16.08;9.98;;;-3.00;99.90;;;;;;5090253;28;20044;-67
2024/01/10 02:12:04;;;;;;;14.38;9.50;;;-3.00;99.90;;;;;;5090078;28;20105;-67
2024/01/10 02:14:30;;;;;;;20.75;9.65;;;-3.10;99.90;;;;;;5090171;28;20155;-67
2024/01/10 02:16:56;;;;;;;17.23;8.77;;;-3.00;99.90;;;;;;5090084;28;20123;-67
2024/01/10 02:19:24;;;;;;;13.43;8.85;;;-3.00;99.90;;;;;;5071894;28;20044;-67
2024/01/10 02:21:50;;;;;;;15.00;9.25;;;-3.00;99.90;;;;;;5089810;28;20036;-67
2024/01/10 02:24:15;;;;;;;17.13;10.05;;;-3.00;99.90;;;;;;5071757;28;20052;-68
2024/01/10 02:26:41;;;;;;;16.08;9.75;;;-2.90;99.90;;;;;;5090673;28;20193;-68
2024/01/10 02:29:07;;;;;;;14.57;9.07;;;-3.00;99.90;;;;;;5091315;28;20468;-68
2024/01/10 02:31:33;;;;;;;15.32;9.38;;;-3.00;99.90;;;;;;5090228;28;20040;-68
2024/01/10 02:33:59;;;;;;;15.57;9.57;;;-2.90;99.90;;;;;;5090113;28;20376;-68
2024/01/10 02:36:25;;;;;;;16.55;10.32;;;-2.90;99.90;;;;;;5071097;28;20044;-68
2024/01/10 02:38:51;;;;;;;15.55;9.25;;;-3.00;99.90;;;;;;5090351;28;20649;-68
2024/01/10 02:41:17;;;;;;;18.48;10.63;;;-3.00;99.90;;;;;;5071707;28;20048;-68
2024/01/10 02:43:43;;;;;;;15.77;9.30;;;-3.00;99.90;;;;;;5089889;28;20063;-68
2024/01/10 02:46:08;;;;;;;17.75;9.15;;;-3.00;99.90;;;;;;5054322;28;20044;-68
2024/01/10 02:48:34;;;;;;;18.08;10.00;;;-3.00;99.90;;;;;;5070982;28;20062;-68
2024/01/10 02:51:00;;;;;;;17.42;10.00;;;-2.90;99.90;;;;;;5071415;28;20051;-68
2024/01/10 02:53:25;;;;;;;14.18;8.88;;;-3.00;99.90;;;;;;5071289;28;20080;-68
2024/01/10 02:55:51;;;;;;;16.52;9.23;;;-3.00;99.90;;;;;;5070826;28;20495;-68
2024/01/10 02:58:17;;;;;;;14.93;9.65;;;-3.00;99.90;;;;;;5089259;28;20101;-68
2024/01/10 03:00:43;;;;;;;19.58;9.60;;;-2.90;99.90;;;;;;5089496;28;20040;-68
2024/01/10 03:03:08;;;;;;;13.30;8.30;;;-3.00;99.90;;;;;;5089822;28;20028;-68
2024/01/10 03:05:34;;;;;;;12.05;8.73;;;-3.00;99.90;;;;;;5071125;28;20075;-68
2024/01/10 03:08:02;;;;;;;12.43;8.65;;;-3.10;99.90;;;;;;5089131;28;20041;-68
2024/01/10 03:10:27;;;;;;;13.52;8.23;;;-3.10;99.90;;;;;;5089157;28;20036;-66
2024/01/10 03:12:53;;;;;;;12.57;8.27;;;-3.10;99.90;;;;;;5088921;28;20506;-67
2024/01/10 03:15:19;;;;;;;24.77;9.07;;;-3.10;99.90;;;;;;5088651;28;20059;-67
2024/01/10 03:17:44;;;;;;;14.27;8.55;;;-3.00;99.90;;;;;;5089066;28;20051;-67
2024/01/10 03:20:10;;;;;;;12.90;8.50;;;-3.00;99.90;;;;;;5070371;28;20091;-68
2024/01/10 03:22:37;;;;;;;11.98;8.00;;;-3.10;99.90;;;;;;5088333;28;20043;-67
2024/01/10 03:25:03;;;;;;;15.82;9.95;;;-3.10;99.90;;;;;;5088779;28;20055;-67
2024/01/10 03:27:28;;;;;;;17.25;9.35;;;-3.10;99.90;;;;;;5088489;28;20147;-67
2024/01/10 03:29:54;;;;;;;12.55;8.63;;;-3.10;99.90;;;;;;5069915;28;20119;-67
2024/01/10 03:32:20;;;;;;;15.93;8.90;;;-3.20;99.90;;;;;;5070117;28;20047;-67
2024/01/10 03:34:46;;;;;;;16.83;9.57;;;-3.20;99.90;;;;;;5070430;28;20044;-67
2024/01/10 03:37:11;;;;;;;15.32;8.82;;;-3.10;99.90;;;;;;5088433;28;20050;-67
2024/01/10 03:39:37;;;;;;;18.40;9.52;;;-3.10;99.90;;;;;;5088509;28;20275;-67
2024/01/10 03:42:03;;;;;;;16.58;9.68;;;-3.20;99.90;;;;;;5088812;28;20500;-67
2024/01/10 03:44:29;;;;;;;15.38;9.05;;;-3.20;99.90;;;;;;5069987;28;20496;-67
2024/01/10 03:46:54;;;;;;;13.38;8.95;;;-3.20;99.90;;;;;;5069946;28;20119;-67
2024/01/10 03:49:20;;;;;;;16.58;9.45;;;-3.20;99.90;;;;;;5087748;28;20126;-67
2024/01/10 03:51:46;;;;;;;16.95;9.40;;;-3.20;99.90;;;;;;5070072;28;20040;-67
2024/01/10 03:54:11;;;;;;;16.83;9.55;;;-3.20;99.90;;;;;;5052824;28;20551;-67
2024/01/10 03:56:37;;;;;;;15.32;9.88;;;-3.30;99.90;;;;;;5087870;28;20060;-67
2024/01/10 03:59:03;;;;;;;15.25;9.43;;;-3.30;99.90;;;;;;5069491;28;20166;-66
2024/01/10 04:01:28;;;;;;;16.88;11.25;;;-3.30;99.90;;;;;;5087881;28;20075;-67
2024/01/10 04:03:54;;;;;;;19.35;11.23;;;-3.30;99.90;;;;;;5069700;28;20063;-67
2024/01/10 04:06:20;;;;;;;15.80;10.23;;;-3.20;99.90;;;;;;5069859;28;20043;-67
2024/01/10 04:08:45;;;;;;;17.13;10.55;;;-3.20;99.90;;;;;;5088279;28;20040;-67
2024/01/10 04:11:11;;;;;;;18.45;10.23;;;-3.30;99.90;;;;;;5069561;28;20131;-67
2024/01/10 04:13:37;;;;;;;17.58;10.63;;;-3.30;99.90;;;;;;5069570;28;20048;-67
2024/01/10 04:16:02;;;;;;;20.80;11.27;;;-3.20;99.90;;;;;;5088067;28;20750;-67
2024/01/10 04:18:28;;;;;;;16.40;10.65;;;-3.30;99.90;;;;;;5087959;28;20074;-67
2024/01/10 04:20:54;;;;;;;18.95;11.10;;;-3.30;99.90;;;;;;5087640;28;20461;-67
2024/01/10 04:23:20;;;;;;;17.58;11.15;;;-3.30;99.90;;;;;;5087468;28;20048;-67
2024/01/10 04:25:45;;;;;;;18.30;9.38;;;-3.10;99.90;;;;;;5069331;28;20048;-67
2024/01/10 04:28:11;;;;;;;14.88;9.77;;;-3.30;99.90;;;;;;5087342;28;20109;-67
2024/01/10 04:30:37;;;;;;;18.73;10.48;;;-3.20;99.90;;;;;;5087494;28;20100;-67
2024/01/10 04:33:02;;;;;;;21.67;11.13;;;-3.20;99.90;;;;;;5087735;28;20043;-67
2024/01/10 04:35:28;;;;;;;17.52;10.30;;;-3.20;99.90;;;;;;5087803;28;20160;-67
2024/01/10 04:37:54;;;;;;;13.85;10.05;;;-3.20;99.90;;;;;;5069589;28;20052;-67
2024/01/10 04:40:19;;;;;;;19.15;9.73;;;-3.20;99.90;;;;;;5069511;28;20051;-67
2024/01/10 04:42:46;;;;;;;16.45;10.18;;;-3.20;99.90;;;;;;5087740;28;20480;-68
2024/01/10 04:45:12;;;;;;;16.30;9.90;;;-3.30;99.90;;;;;;5087322;28;20036;-67
2024/01/10 04:47:37;;;;;;;18.65;9.98;;;-3.20;99.90;;;;;;5069029;28;20040;-68
2024/01/10 04:50:03;;;;;;;17.90;10.45;;;-3.20;99.90;;;;;;5087627;28;20040;-67
2024/01/10 04:52:29;;;;;;;18.60;10.48;;;-3.20;99.90;;;;;;5069026;28;20486;-67
2024/01/10 04:54:54;;;;;;;19.35;10.35;;;-3.20;99.90;;;;;;5068971;28;20051;-68
2024/01/10 04:57:20;;;;;;;17.75;10.82;;;-3.20;99.90;;;;;;5068785;28;20060;-66
2024/01/10 04:59:46;;;;;;;16.95;10.43;;;-3.20;99.90;;;;;;5069566;28;20498;-67
2024/01/10 05:02:12;;;;;;;19.13;10.77;;;-3.20;99.90;;;;;;5073241;28;20044;-67
2024/01/10 05:04:38;;;;;;;17.63;10.60;;;-3.20;99.90;;;;;;5091499;28;20451;-67
2024/01/10 05:07:04;;;;;;;17.05;10.18;;;-3.20;99.90;;;;;;5091500;28;20765;-67
2024/01/10 05:09:29;;;;;;;18.05;10.40;;;-3.20;99.90;;;;;;5091353;28;20147;-67
2024/01/10 05:11:55;;;;;;;18.48;10.52;;;-3.20;99.90;;;;;;5090914;28;20384;-68
2024/01/10 05:14:21;;;;;;;18.25;10.65;;;-3.20;99.90;;;;;;5091146;28;20040;-67
2024/01/10 05:16:50;;;;;;;18.85;10.45;;;-3.30;99.90;;;;;;5073139;28;20052;-67
2024/01/10 05:19:15;;;;;;;18.95;11.07;;;-3.30;99.90;;;;;;5072469;28;20143;-68
2024/01/10 05:21:41;;;;;;;20.50;11.52;;;-3.30;99.90;;;;;;5072351;28;20056;-68
2024/01/10 05:24:07;;;;;;;20.60;11.27;;;-3.30;99.90;;;;;;5072529;28;20418;-67
2024/01/10 05:26:33;;;;;;;19.73;11.00;;;-3.40;99.90;;;;;;5072363;28;20044;-67
2024/01/10 05:28:58;;;;;;;17.73;11.57;;;-3.40;99.90;;;;;;5072506;28;20420;-68
2024/01/10 05:31:24;;;;;;;17.48;11.30;;;-3.40;99.90;;;;;;5072720;28;20139;-68
2024/01/10 05:33:50;;;;;;;20.35;11.85;;;-3.40;99.90;;;;;;5072462;28;20040;-68
2024/01/10 05:36:15;;;;;;;21.15;11.77;;;-3.50;99.90;;;;;;5090937;28;20047;-68
2024/01/10 05:38:41;;;;;;;21.30;10.95;;;-3.50;99.90;;;;;;5072217;28;20200;-68
2024/01/10 05:41:07;;;;;;;19.52;11.48;;;-3.50;99.90;;;;;;5090708;28;20127;-68
2024/01/10 05:43:32;;;;;;;18.77;10.60;;;-3.50;99.90;;;;;;5090650;28;20046;-68
2024/01/10 05:45:59;;;;;;;21.45;11.68;;;-3.60;99.90;;;;;;5090764;28;20109;-68
2024/01/10 05:48:25;;;;;;;21.55;11.90;;;-3.60;99.90;;;;;;5090633;28;20044;-67
2024/01/10 05:50:51;;;;;;;24.20;12.82;;;-3.50;99.90;;;;;;5072421;28;20077;-67
2024/01/10 05:53:17;;;;;;;19.55;11.80;;;-3.60;99.90;;;;;;5072369;28;20465;-67
2024/01/10 05:55:43;;;;;;;21.38;11.95;;;-3.50;99.90;;;;;;5090211;28;20050;-67
2024/01/10 05:58:12;;;;;;;22.60;13.43;;;-3.60;99.90;;;;;;5090322;28;20113;-67
2024/01/10 06:00:38;;;;;;;21.40;11.85;;;-3.50;99.90;;;;;;5090680;28;20142;-67
2024/01/10 06:03:04;;;;;;;25.63;12.88;;;-3.50;99.90;;;;;;5090678;28;20036;-67
2024/01/10 06:05:31;;;;;;;20.65;12.05;;;-3.50;99.90;;;;;;5090424;28;20044;-67
2024/01/10 06:07:57;;;;;;;24.02;12.15;;;-3.50;99.90;;;;;;5090441;28;20183;-67
2024/01/10 06:10:23;;;;;;;20.95;11.98;;;-3.50;99.90;;;;;;5090935;28;20492;-67
2024/01/10 06:12:48;;;;;;;18.58;11.55;;;-3.50;99.90;;;;;;5089998;28;20764;-67
2024/01/10 06:15:14;;;;;;;20.02;11.73;;;-3.50;99.90;;;;;;5090601;28;20126;-67
2024/01/10 06:17:40;;;;;;;21.15;12.75;;;-3.40;99.90;;;;;;5071867;28;20052;-67
2024/01/10 06:20:07;;;;;;;25.80;13.38;;;-3.50;99.90;;;;;;5071494;28;20050;-67
2024/01/10 06:22:33;;;;;;;26.77;12.60;;;-3.40;99.90;;;;;;5089750;28;20063;-67
2024/01/10 06:24:58;;;;;;;23.90;13.68;;;-3.50;99.90;;;;;;5071615;28;20048;-67
2024/01/10 06:27:24;;;;;;;23.88;12.82;;;-3.40;99.90;;;;;;5089638;28;20060;-67
2024/01/10 06:29:50;;;;;;;23.10;11.80;;;-3.40;99.90;;;;;;5090006;28;20040;-67
2024/01/10 06:32:16;;;;;;;19.08;12.23;;;-3.50;99.90;;;;;;5089757;28;20127;-67
2024/01/10 06:34:41;;;;;;;24.63;12.77;;;-3.50;99.90;;;;;;5090526;28;20450;-67
2024/01/10 06:37:07;;;;;;;21.67;12.32;;;-3.50;99.90;;;;;;5090411;28;20036;-67
2024/01/10 06:39:33;;;;;;;22.67;12.45;;;-3.50;99.90;;;;;;5072139;28;20047;-68
2024/01/10 06:41:59;;;;;;;22.95;13.88;;;-3.50;99.90;;;;;;5090420;28;20059;-67
2024/01/10 06:44:27;;;;;;;22.50;11.98;;;-3.50;99.90;;;;;;5072123;28;20051;-67
2024/01/10 06:46:53;;;;;;;25.23;12.88;;;-3.50;99.90;;;;;;5090942;28;20043;-67
2024/01/10 06:49:19;;;;;;;26.17;13.85;;;-3.60;99.90;;;;;;5090550;28;20176;-67
2024/01/10 06:51:44;;;;;;;25.48;13.55;;;-3.50;99.90;;;;;;5071887;28;20051;-67
2024/01/10 06:54:10;;;;;;;24.63;13.13;;;-3.50;99.90;;;;;;5090592;28;20075;-67
2024/01/10 06:56:36;;;;;;;23.60;13.30;;;-3.50;99.90;;;;;;5089882;28;20135;-67
2024/01/10 06:59:02;;;;;;;22.35;13.18;;;-3.50;99.90;;;;;;5090450;28;20036;-67
2024/01/10 07:01:27;;;;;;;23.77;13.30;;;-3.50;99.90;;;;;;5090623;28;20044;-67
2024/01/10 07:03:56;;;;;;;24.83;13.18;;;-3.50;99.90;;;;;;5090298;28;20043;-67
2024/01/10 07:06:23;;;;;;;22.45;12.55;;;-3.50;99.90;;;;;;5090055;28;20072;-67
2024/01/10 07:08:50;;;;;;;22.73;13.15;;;-3.50;99.90;;;;;;5090358;28;20416;-67
2024/01/10 07:11:17;;;;;;;25.50;14.30;;;-3.50;99.90;;;;;;5090331;28;20035;-67
2024/01/10 07:13:43;;;;;;;23.27;13.55;;;-3.50;99.90;;;;;;5071792;28;20039;-67
2024/01/10 07:16:09;;;;;;;24.75;13.27;;;-3.50;99.90;;;;;;5071631;28;20048;-67
2024/01/10 07:18:35;;;;;;;23.55;14.30;;;-3.50;99.90;;;;;;5089804;28;20140;-68
2024/01/10 07:21:00;;;;;;;18.65;12.57;;;-3.60;99.90;;;;;;5071031;28;20126;-67
2024/01/10 07:23:26;;;;;;;23.60;13.48;;;-3.60;99.90;;;;;;5089645;28;20115;-68
2024/01/10 07:25:52;;;;;;;22.08;13.30;;;-3.50;99.90;;;;;;5089881;28;20109;-68
2024/01/10 07:28:18;;;;;;;23.33;14.63;;;-3.50;99.90;;;;;;5089743;28;20330;-67
2024/01/10 07:30:44;;;;;;;23.52;13.43;;;-3.50;99.90;;;;;;5085788;28;20694;-68
2024/01/10 07:33:10;;;;;;;24.83;13.05;;;-3.50;99.90;;;;;;5089214;28;20039;-67
2024/01/10 07:35:38;;;;;;;23.90;12.90;;;-3.50;99.90;;;;;;5053849;28;20377;-67
2024/01/10 07:38:10;;;;;;;21.45;13.05;;;-3.60;99.90;;;;;;5053908;28;20044;-67
2024/01/10 07:40:36;;;;;;;22.45;13.82;;;-3.50;99.90;;;;;;5075024;28;20486;-67
2024/01/10 07:43:02;;;;;;;22.77;13.15;;;-3.50;99.90;;;;;;5087916;28;20044;-67
2024/01/10 07:45:28;;;;;;;25.45;13.32;;;-3.50;99.90;;;;;;5089138;28;20039;-67
2024/01/10 07:47:54;;;;;;;20.73;12.07;;;-3.50;99.90;;;;;;5089241;28;20403;-68
2024/01/10 07:50:20;;;;;;;24.13;13.63;;;-3.40;99.90;;;;;;5070927;28;20503;-67
2024/01/10 07:52:46;;;;;;;19.88;13.40;;;-3.40;99.90;;;;;;5071083;28;20040;-67
2024/01/10 07:55:12;;;;;;;23.60;13.55;;;-3.40;99.90;;;;;;5070770;28;20063;-68
2024/01/10 07:57:39;;;;;;;21.48;12.15;;;-3.40;99.90;;;;;;5089540;28;20047;-68
2024/01/10 08:00:08;;;;;;;22.08;12.10;;;-3.40;99.90;;;;;;5071364;28;20097;-67
2024/01/10 08:02:33;;;;;;;19.88;13.40;;;-3.50;99.90;;;;;;5089572;28;20376;-68
2024/01/10 08:05:08;;;;;;;21.25;12.57;;;-3.40;99.90;;;;;;5089129;28;20093;-68
2024/01/10 08:07:36;;;;;;;22.55;11.82;;;-3.40;99.90;;;;;;5071027;28;20052;-68
2024/01/10 08:10:04;;;;;;;25.27;12.77;;;-3.50;99.90;;;;;;5089322;28;20028;-68
2024/01/10 08:12:30;;;;;;;22.33;12.77;;;-3.40;99.90;;;;;;5071107;28;20079;-68
2024/01/10 08:14:56;;;;;;;23.35;12.20;;;-3.40;99.90;;;;;;5070944;28;20421;-68
2024/01/10 08:17:23;;;;;;;23.08;13.07;;;-3.40;99.90;;;;;;5089284;28;20032;-68
2024/01/10 08:19:49;;;;;;;23.08;12.65;;;-3.40;99.90;;;;;;5089015;28;20129;-68
2024/01/10 08:22:15;;;;;;;23.42;13.13;;;-3.40;99.90;;;;;;5089069;28;20055;-68
2024/01/10 08:24:41;;;;;;;22.10;12.80;;;-3.40;99.90;;;;;;5089124;28;20126;-68
2024/01/10 08:27:07;;;;;;;22.70;12.57;;;-3.40;99.90;;;;;;5070910;28;20115;-68
2024/01/10 08:29:33;;;;;;;18.73;12.85;;;-3.40;99.90;;;;;;5089021;28;20123;-68
2024/01/10 08:31:59;;;;;;;27.77;14.48;;;-3.40;99.90;;;;;;5070765;28;20476;-68
2024/01/10 08:34:24;;;;;;;23.10;12.75;;;-3.40;99.90;;;;;;5069784;28;20043;-68
2024/01/10 08:36:51;;;;;;;20.13;11.93;;;-3.40;99.90;;;;;;5088749;28;20051;-68
2024/01/10 08:39:17;;;;;;;21.50;12.30;;;-3.30;99.90;;;;;;5070582;28;20137;-68
2024/01/10 08:41:44;;;;;;;19.20;12.35;;;-3.30;99.90;;;;;;5088552;28;20108;-68
2024/01/10 08:44:13;;;;;;;19.40;11.82;;;-3.30;99.90;;;;;;5070653;28;20416;-69
2024/01/10 08:46:39;;;;;;;22.48;12.25;;;-3.30;99.90;;;;;;5070217;28;20052;-68
2024/01/10 08:49:05;;;;;;;20.77;11.85;;;-3.20;99.90;;;;;;5070011;28;20055;-69
2024/01/10 08:51:30;;;;;;;22.88;12.80;;;-3.10;99.90;;;;;;5070188;28;20471;-69
2024/01/10 08:53:57;;;;;;;19.85;12.80;;;-3.20;99.90;;;;;;5088456;28;20142;-69
2024/01/10 08:56:23;;;;;;;19.52;11.38;;;-3.10;99.90;;;;;;5088163;28;20056;-70
2024/01/10 08:58:49;;;;;;;19.13;11.23;;;-3.00;99.90;;;;;;5070161;28;20063;-69
2024/01/10 09:01:15;;;;;;;16.95;11.40;;;-3.00;99.90;;;;;;5087723;28;20449;-69
2024/01/10 09:03:41;;;;;;;18.65;11.73;;;-3.00;99.90;;;;;;5069376;28;20480;-69
2024/01/10 09:06:07;;;;;;;19.65;10.68;;;-3.00;99.90;;;;;;5069395;28;20091;-68
2024/01/10 09:08:34;;;;;;;18.65;11.75;;;-3.00;99.90;;;;;;5069969;28;20451;-68
2024/01/10 09:10:59;;;;;;;20.67;11.73;;;-2.90;99.90;;;;;;5070053;28;20048;-68
2024/01/10 09:13:25;;;;;;;18.98;11.95;;;-2.90;99.90;;;;;;5067155;28;20589;-69
2024/01/10 09:15:51;;;;;;;19.88;11.15;;;-2.80;99.90;;;;;;5068343;28;20141;-69
2024/01/10 09:18:16;;;;;;;18.50;12.32;;;-2.90;99.90;;;;;;5087442;28;20421;-69
2024/01/10 09:20:42;;;;;;;20.23;10.95;;;-2.90;99.90;;;;;;5088042;28;20040;-71
2024/01/10 09:23:08;;;;;;;18.65;11.10;;;-2.80;99.90;;;;;;5088111;28;20051;-70
2024/01/10 09:25:33;;;;;;;15.90;10.57;;;-2.70;99.90;;;;;;5050337;28;20067;-70
2024/01/10 09:27:59;;;;;;;17.92;11.30;;;-2.80;99.90;;;;;;5069183;28;20082;-70
2024/01/10 09:30:25;;;;;;;20.08;11.63;;;-2.90;99.90;;;;;;5069474;28;20040;-68
2024/01/10 09:32:50;;;;;;;18.17;11.18;;;-2.70;99.90;;;;;;5069505;28;20066;-68
2024/01/10 09:35:17;;;;;;;17.60;11.35;;;-2.70;99.90;;;;;;5072058;28;20071;-68
2024/01/10 09:37:45;;;;;;;20.05;10.85;;;-2.60;99.90;;;;;;5090103;28;20128;-68
2024/01/10 09:40:14;;;;;;;18.38;11.48;;;-2.60;99.90;;;;;;5107920;28;20047;-68
2024/01/10 09:42:40;;;;;;;16.55;10.48;;;-2.60;99.90;;;;;;5088898;28;20414;-69
2024/01/10 09:45:08;;;;;;;16.13;10.38;;;-2.60;99.90;;;;;;5085637;28;20028;-67
2024/01/10 09:47:39;;;;;;;22.00;11.35;;;-2.50;99.90;;;;;;5088544;28;20143;-67
2024/01/10 09:50:05;;;;;;;15.80;9.60;;;-2.40;99.90;;;;;;5073109;28;20446;-67
2024/01/10 09:52:39;;;;;;;16.40;9.30;;;-2.40;99.90;;;;;;5091328;28;20128;-68
2024/01/10 09:55:05;;;;;;;17.77;9.93;;;-2.40;99.90;;;;;;5091352;28;20122;-68
2024/01/10 09:57:31;;;;;;;19.40;10.38;;;-2.40;99.90;;;;;;5054340;28;20571;-68
2024/01/10 09:59:57;;;;;;;18.23;8.90;;;-2.30;99.90;;;;;;5053087;28;20052;-68
2024/01/10 10:02:23;;;;;;;17.83;10.20;;;-2.20;99.90;;;;;;5071407;28;20410;-68
2024/01/10 10:05:15;;;;;;;19.98;10.23;;;-2.20;99.90;;;;;;5073045;28;20078;-69
2024/01/10 10:07:49;;;;;;;16.67;9.77;;;-2.10;99.90;;;;;;5070961;28;20121;-70
2024/01/10 10:10:15;;;;;;;17.45;10.63;;;-2.10;99.90;;;;;;5058432;28;20387;-69
2024/01/10 10:12:48;;;;;;;17.40;9.93;;;-2.10;99.90;;;;;;5069236;28;20135;-69
2024/01/10 10:15:19;;;;;;;19.23;10.02;;;-2.10;99.90;;;;;;5071677;28;20036;-69
2024/01/10 10:17:47;;;;;;;18.60;9.65;;;-2.00;99.90;;;;;;5069409;28;20055;-69
2024/01/10 10:20:23;;;;;;;15.48;10.18;;;-2.00;99.90;;;;;;5072040;28;20107;-69
2024/01/10 10:23:04;;;;;;;16.73;9.68;;;-1.90;99.90;;;;;;5090182;28;20436;-69
2024/01/10 10:25:42;;;;;;;12.05;8.15;;;-1.90;99.90;;;;;;5055625;28;20044;-69
2024/01/10 10:28:07;;;;;;;13.98;8.35;;;-1.80;99.90;;;;;;5070408;28;20076;-70
2024/01/10 10:30:33;;;;;;;14.05;8.25;;;-1.90;99.90;;;;;;5072637;28;20083;-69
2024/01/10 10:33:00;;;;;;;15.40;8.63;;;-1.90;99.90;;;;;;5072722;28;20056;-69
2024/01/10 10:35:25;;;;;;;16.58;9.32;;;-1.80;99.90;;;;;;5091607;28;20035;-70
2024/01/10 10:37:52;;;;;;;15.93;9.30;;;-1.80;99.90;;;;;;5093092;28;20368;-70
2024/01/10 10:40:19;;;;;;;15.05;9.27;;;-1.80;99.90;;;;;;5104028;28;20067;-69
2024/01/10 10:42:56;;;;;;;13.07;9.20;;;-1.80;99.90;;;;;;5083471;28;20047;-68
2024/01/10 10:45:29;;;;;;;15.95;9.13;;;-1.70;99.90;;;;;;5090260;28;20491;-67
2024/01/10 10:48:01;;;;;;;14.00;7.97;;;-1.60;99.90;;;;;;5090451;28;20071;-67
2024/01/10 10:50:35;;;;;;;16.45;9.05;;;-1.60;99.90;;;;;;5072347;28;20044;-68
2024/01/10 10:53:03;;;;;;;12.77;8.25;;;-1.50;99.90;;;;;;5070737;28;20047;-68
2024/01/10 10:55:29;;;;;;;14.27;8.55;;;-1.60;99.90;;;;;;5035750;28;20746;-68
2024/01/10 10:57:56;;;;;;;14.07;8.45;;;-1.50;99.90;;;;;;5051439;28;20048;-69
2024/01/10 11:00:26;;;;;;;14.45;8.18;;;-1.50;99.90;;;;;;5035398;28;20478;-68
2024/01/10 11:02:54;;;;;;;14.10;8.48;;;-1.50;99.90;;;;;;5089998;28;20146;-68
2024/01/10 11:05:20;;;;;;;14.68;9.13;;;-1.40;99.90;;;;;;5090033;28;20056;-68
2024/01/10 11:07:47;;;;;;;15.98;8.38;;;-1.40;99.90;;;;;;5089633;28;20124;-69
2024/01/10 11:10:14;;;;;;;13.30;8.45;;;-1.40;99.90;;;;;;5090120;28;20177;-68
2024/01/10 11:13:17;;;;;;;13.55;8.52;;;-1.40;99.90;;;;;;5089762;28;20044;-68
2024/01/10 11:16:07;;;;;;;14.23;8.30;;;-1.30;99.90;;;;;;5090526;28;20044;-67
2024/01/10 11:18:56;;;;;;;11.88;6.57;;;-1.30;99.90;;;;;;5089880;28;20077;-68
2024/01/10 11:21:42;;;;;;;12.40;7.22;;;-1.20;99.90;;;;;;5090104;28;20734;-68
2024/01/10 11:24:09;;;;;;;12.70;7.38;;;-1.20;99.90;;;;;;5062085;28;20147;-68
2024/01/10 11:26:37;;;;;;;12.73;7.82;;;-1.20;99.90;;;;;;5064921;28;20516;-68
2024/01/10 11:29:05;;;;;;;11.95;7.72;;;-1.10;99.90;;;;;;5083957;28;20104;-68
2024/01/10 11:31:32;;;;;;;16.50;8.55;;;-1.10;99.90;;;;;;5083803;28;20040;-67
2024/01/10 11:34:00;;;;;;;14.70;8.73;;;-1.10;99.90;;;;;;5079734;28;20039;-68
2024/01/10 11:36:27;;;;;;;15.95;7.78;;;-1.10;99.90;;;;;;5083836;28;20051;-68
2024/01/10 11:39:01;;;;;;;14.48;7.95;;;-1.10;99.90;;;;;;5090013;28;20101;-68
2024/01/10 11:41:30;;;;;;;14.95;8.27;;;-1.00;99.90;;;;;;5089401;28;20072;-68
2024/01/10 11:44:11;;;;;;;14.75;7.53;;;-1.00;99.90;;;;;;5070344;28;20448;-68
2024/01/10 11:46:47;;;;;;;14.02;8.52;;;-0.90;99.90;;;;;;5088903;28;20039;-67
2024/01/10 11:49:15;;;;;;;16.00;8.68;;;-0.90;99.90;;;;;;5069184;28;20040;-67
2024/01/10 11:51:45;;;;;;;19.05;8.52;;;-0.90;99.90;;;;;;5089243;28;20051;-66
2024/01/10 11:54:11;;;;;;;15.43;8.45;;;-0.90;99.90;;;;;;5070709;28;20508;-67
2024/01/10 11:56:45;;;;;;;15.27;8.55;;;-0.80;99.90;;;;;;5070318;28;20075;-67
2024/01/10 11:59:11;;;;;;;16.63;8.07;;;-0.80;99.90;;;;;;5088791;28;20032;-67
2024/01/10 12:01:39;;;;;;;14.68;8.38;;;-0.80;99.90;;;;;;5080885;28;20071;-67
2024/01/10 12:04:05;;;;;;;14.60;8.82;;;-0.80;99.90;;;;;;5089545;28;20122;-66
2024/01/10 12:06:34;;;;;;;19.33;8.95;;;-0.80;99.90;;;;;;5089280;28;20043;-66
2024/01/10 12:09:03;;;;;;;16.63;8.85;;;-0.80;99.90;;;;;;5070889;28;20462;-66
2024/01/10 12:11:28;;;;;;;13.98;7.47;;;-0.80;99.90;;;;;;5074398;28;20079;-67
2024/01/10 12:13:54;;;;;;;12.60;7.38;;;-0.70;99.90;;;;;;5109892;28;20075;-68
2024/01/10 12:16:23;;;;;;;16.88;8.65;;;-0.60;99.90;;;;;;5109300;28;20039;-66
2024/01/10 12:18:49;;;;;;;13.07;7.47;;;-0.70;99.90;;;;;;5109841;28;20054;-67
2024/01/10 12:21:14;;;;;;;13.02;6.97;;;-0.60;99.90;;;;;;5090550;28;20043;-68
2024/01/10 12:23:41;;;;;;;13.65;7.68;;;-0.60;99.90;;;;;;5091018;28;20115;-68
2024/01/10 12:26:09;;;;;;;13.75;7.50;;;-0.60;99.90;;;;;;5090776;28;20048;-67
2024/01/10 12:28:38;;;;;;;12.27;7.13;;;-0.60;99.90;;;;;;5091090;28;20051;-67